Time;durP1;ratioP1;P1;durP2;ratioP2;P2;SDS_P1;SDS_P2;PMS_P1;PMS_P2;Temp;Humidity;BMP_temperature;BMP_pressure;BME280_temperature;BME280_humidity;BME280_pressure;Samples;Min_cycle;Max_cycle;Signal;HPM_P1;HPM_P2
2021/10/19 00:00:15;;;;;;;;;;;;;;;20.18;42.69;96507.94;1040132;28;1193;-60
2021/10/19 00:00:45;;;;;;;;;;;;;;;20.19;42.73;96506.94;1044449;28;994;-61
2021/10/19 00:01:15;;;;;;;;;;;;;;;20.20;42.58;96511.16;1044228;28;883;-61
2021/10/19 00:01:47;;;;;;;;;;;;;;;20.19;42.71;96500.84;1044147;28;1006;-61
2021/10/19 00:02:18;;;;;;;;;;;;;;;20.18;42.75;96500.06;1044425;28;998;-61
2021/10/19 00:02:48;;;;;;;;;;;;;;;20.18;42.47;96500.06;1043334;28;962;-61
2021/10/19 00:03:18;;;;;;;;;;;;;;;20.18;42.68;96502.69;1044350;28;958;-61
2021/10/19 00:03:49;;;;;;;;;;;;;;;20.18;42.62;96504.50;1044484;28;1036;-61
2021/10/19 00:04:19;;;;;;;;;;;;;;;20.20;42.41;96502.44;1044574;28;1080;-61
2021/10/19 00:04:50;;;;;;;;;;;;;;;20.21;42.63;96501.41;1045042;28;764;-61
2021/10/19 00:05:20;;;;;;;;;;;;;;;20.21;42.70;96501.41;1044962;28;776;-61
2021/10/19 00:05:51;;;;;;;;;;;;;;;20.19;42.61;96500.84;1044120;28;987;-62
2021/10/19 00:06:21;;;;;;;;;;;;;;;20.19;42.65;96496.41;1044578;28;832;-60
2021/10/19 00:06:51;;;;;;;;;;;;;;;20.18;42.68;96499.25;1044452;28;1033;-61
2021/10/19 00:07:22;;;;;;;;;;;;;;;20.19;42.37;96501.69;1040606;28;1061;-61
2021/10/19 00:07:52;;;;;;;;;;;;;;;20.21;42.60;96490.88;1040199;28;951;-61
2021/10/19 00:08:23;;;;;;;;;;;;;;;20.18;42.71;96493.97;1040477;28;954;-61
2021/10/19 00:08:53;;;;;;;;;;;;;;;20.20;42.53;96491.91;1039572;28;852;-61
2021/10/19 00:09:23;;;;;;;;;;;;;;;20.21;42.58;96485.63;1043436;28;863;-61
2021/10/19 00:09:54;;;;;;;;;;;;;;;20.19;42.66;96499.06;1044628;28;1209;-61
2021/10/19 00:10:24;;;;;;;;;;;;;;;20.20;42.51;96491.91;1044400;28;962;-62
2021/10/19 00:10:55;;;;;;;;;;;;;;;20.18;42.63;96486.88;1044773;28;1002;-61
2021/10/19 00:11:25;;;;;;;;;;;;;;;20.18;42.71;96486.09;1045060;28;701;-60
2021/10/19 00:11:55;;;;;;;;;;;;;;;20.18;42.56;96494.78;1044883;28;1007;-60
2021/10/19 00:12:26;;;;;;;;;;;;;;;20.19;42.65;96487.69;1044614;28;1065;-60
2021/10/19 00:12:56;;;;;;;;;;;;;;;20.18;42.52;96489.53;1044329;28;1194;-61
2021/10/19 00:13:26;;;;;;;;;;;;;;;20.18;42.60;96483.47;1044611;28;1030;-61
2021/10/19 00:13:57;;;;;;;;;;;;;;;20.18;42.50;96488.72;1040393;28;1045;-61
2021/10/19 00:14:27;;;;;;;;;;;;;;;20.18;42.36;96484.25;1035459;28;1003;-60
2021/10/19 00:14:57;;;;;;;;;;;;;;;20.22;42.62;96487.19;1036426;28;955;-61
2021/10/19 00:15:28;;;;;;;;;;;;;;;20.19;42.31;96485.88;1036372;28;789;-61
2021/10/19 00:15:58;;;;;;;;;;;;;;;20.18;42.50;96484.25;1040518;28;753;-61
2021/10/19 00:16:28;;;;;;;;;;;;;;;20.18;42.47;96484.25;1044071;28;1066;-61
2021/10/19 00:16:59;;;;;;;;;;;;;;;20.19;42.49;96485.06;1044532;28;1057;-60
2021/10/19 00:17:29;;;;;;;;;;;;;;;20.19;42.57;96482.44;1044493;28;1975;-61
2021/10/19 00:17:59;;;;;;;;;;;;;;;20.17;42.54;96484.50;1043762;28;987;-61
2021/10/19 00:18:30;;;;;;;;;;;;;;;20.17;42.60;96481.88;1043952;28;966;-61
2021/10/19 00:19:00;;;;;;;;;;;;;;;20.17;42.42;96485.28;1044129;28;819;-61
2021/10/19 00:19:31;;;;;;;;;;;;;;;20.17;42.46;96481.88;1043903;28;953;-61
2021/10/19 00:20:01;;;;;;;;;;;;;;;20.17;42.61;96487.16;1044251;28;1201;-61
2021/10/19 00:20:32;;;;;;;;;;;;;;;20.17;42.59;96481.88;1044293;28;803;-61
2021/10/19 00:21:02;;;;;;;;;;;;;;;20.18;42.59;96481.63;1044318;28;1018;-61
2021/10/19 00:21:32;;;;;;;;;;;;;;;20.18;42.60;96479.00;1044483;28;844;-61
2021/10/19 00:22:03;;;;;;;;;;;;;;;20.18;42.66;96479.00;1044382;28;792;-61
2021/10/19 00:22:34;;;;;;;;;;;;;;;20.18;42.67;96488.72;1044201;28;910;-61
2021/10/19 00:23:04;;;;;;;;;;;;;;;20.17;42.53;96481.88;1044491;28;789;-61
2021/10/19 00:23:34;;;;;;;;;;;;;;;20.15;42.62;96478.72;1044755;28;840;-61
2021/10/19 00:24:05;;;;;;;;;;;;;;;20.15;42.65;96479.47;1044133;28;1057;-61
2021/10/19 00:24:35;;;;;;;;;;;;;;;20.15;42.70;96481.34;1043723;28;816;-59
2021/10/19 00:25:06;;;;;;;;;;;;;;;20.15;42.49;96478.72;1044114;28;797;-61
2021/10/19 00:25:36;;;;;;;;;;;;;;;20.17;42.46;96481.88;1040185;28;808;-61
2021/10/19 00:26:07;;;;;;;;;;;;;;;20.15;42.49;96481.34;1035863;28;1588;-61
2021/10/19 00:26:37;;;;;;;;;;;;;;;20.16;42.63;96485.56;1036004;28;853;-61
2021/10/19 00:27:07;;;;;;;;;;;;;;;20.16;42.55;96480.28;1039932;28;939;-61
2021/10/19 00:27:37;;;;;;;;;;;;;;;20.15;42.66;96484.75;1044155;28;1218;-60
2021/10/19 00:28:08;;;;;;;;;;;;;;;20.15;42.58;96489.25;1044586;28;793;-61
2021/10/19 00:28:39;;;;;;;;;;;;;;;20.13;42.64;96484.22;1044417;28;907;-60
2021/10/19 00:29:09;;;;;;;;;;;;;;;20.14;42.44;96480.53;1044097;28;1026;-61
2021/10/19 00:29:39;;;;;;;;;;;;;;;20.16;42.67;96480.28;1044487;28;983;-60
2021/10/19 00:30:10;;;;;;;;;;;;;;;20.15;42.65;96482.13;1043991;28;1280;-61
2021/10/19 00:30:40;;;;;;;;;;;;;;;20.16;42.47;96477.66;1044301;28;744;-61
2021/10/19 00:31:11;;;;;;;;;;;;;;;20.15;42.51;96479.47;1044029;28;1009;-61
2021/10/19 00:31:41;;;;;;;;;;;;;;;20.16;42.33;96475.81;1044028;28;1010;-61
2021/10/19 00:32:12;;;;;;;;;;;;;;;20.15;42.51;96470.81;1039778;28;800;-61
2021/10/19 00:32:42;;;;;;;;;;;;;;;20.17;42.55;96476.63;1042668;28;816;-61
2021/10/19 00:33:12;;;;;;;;;;;;;;;20.16;42.63;96472.38;1043930;28;832;-61
2021/10/19 00:33:43;;;;;;;;;;;;;;;20.16;42.52;96470.56;1044203;28;848;-61
2021/10/19 00:34:13;;;;;;;;;;;;;;;20.16;42.60;96475.03;1043427;28;1006;-61
2021/10/19 00:34:43;;;;;;;;;;;;;;;20.16;42.56;96464.50;1043932;28;847;-61
2021/10/19 00:35:14;;;;;;;;;;;;;;;20.15;42.52;96468.94;1039786;28;1483;-61
2021/10/19 00:35:44;;;;;;;;;;;;;;;20.15;42.48;96461.06;1040106;28;851;-61
2021/10/19 00:36:14;;;;;;;;;;;;;;;20.16;42.50;96469.75;1039936;28;1219;-61
2021/10/19 00:36:45;;;;;;;;;;;;;;;20.16;42.48;96469.75;1040108;28;911;-61
2021/10/19 00:37:15;;;;;;;;;;;;;;;20.14;42.44;96467.38;1043966;28;1975;-61
2021/10/19 00:37:45;;;;;;;;;;;;;;;20.15;42.44;96468.19;1043998;28;812;-61
2021/10/19 00:38:16;;;;;;;;;;;;;;;20.16;42.43;96464.50;1044622;28;875;-61
2021/10/19 00:38:46;;;;;;;;;;;;;;;20.14;42.62;96461.31;1044611;28;915;-61
2021/10/19 00:39:17;;;;;;;;;;;;;;;20.15;42.56;96468.19;1043768;28;686;-61
2021/10/19 00:39:47;;;;;;;;;;;;;;;20.14;42.48;96462.13;1040076;28;832;-61
2021/10/19 00:40:17;;;;;;;;;;;;;;;20.15;42.59;96461.06;1039885;28;1247;-61
2021/10/19 00:40:48;;;;;;;;;;;;;;;20.14;42.53;96462.13;1036068;28;1161;-61
2021/10/19 00:41:18;;;;;;;;;;;;;;;20.15;42.43;96463.69;1040118;28;1015;-61
2021/10/19 00:41:48;;;;;;;;;;;;;;;20.15;42.40;96462.91;1043986;28;1046;-61
2021/10/19 00:42:19;;;;;;;;;;;;;;;20.13;42.49;96463.16;1043831;28;790;-61
2021/10/19 00:42:49;;;;;;;;;;;;;;;20.13;42.40;96460.53;1044272;28;1014;-61
2021/10/19 00:43:20;;;;;;;;;;;;;;;20.15;42.60;96465.56;1044350;28;1054;-61
2021/10/19 00:43:51;;;;;;;;;;;;;;;20.14;42.38;96456.06;1044382;28;889;-61
2021/10/19 00:44:21;;;;;;;;;;;;;;;20.13;42.48;96462.38;1043011;28;824;-61
2021/10/19 00:44:52;;;;;;;;;;;;;;;20.13;42.45;96457.88;1031951;28;1475;-61
2021/10/19 00:45:22;;;;;;;;;;;;;;;20.14;42.66;96462.13;1035802;28;847;-61
2021/10/19 00:45:53;;;;;;;;;;;;;;;20.13;42.42;96463.16;1035674;28;848;-63
2021/10/19 00:46:23;;;;;;;;;;;;;;;20.13;42.38;96459.75;1039821;28;804;-61
2021/10/19 00:46:57;;;;;;;;;;;;;;;20.14;42.38;96459.50;1044180;28;867;-60
2021/10/19 00:47:27;;;;;;;;;;;;;;;20.13;42.32;96457.88;1044493;28;1034;-61
2021/10/19 00:47:58;;;;;;;;;;;;;;;20.13;42.61;96459.75;1043284;28;757;-61
2021/10/19 00:48:31;;;;;;;;;;;;;;;20.13;42.53;96454.47;1043814;28;1065;-61
2021/10/19 00:49:01;;;;;;;;;;;;;;;20.13;42.43;96455.25;1044421;28;835;-61
2021/10/19 00:49:32;;;;;;;;;;;;;;;20.13;42.50;96455.25;1036599;28;1269;-61
2021/10/19 00:50:02;;;;;;;;;;;;;;;20.13;42.63;96457.88;1036805;28;1236;-61
2021/10/19 00:50:33;;;;;;;;;;;;;;;20.13;42.60;96454.47;1040691;28;812;-61
2021/10/19 00:51:03;;;;;;;;;;;;;;;20.13;42.38;96455.25;1040739;28;796;-61
2021/10/19 00:51:34;;;;;;;;;;;;;;;20.12;42.61;96458.94;1044882;28;978;-61
2021/10/19 00:52:04;;;;;;;;;;;;;;;20.13;42.46;96454.47;1044749;28;797;-61
2021/10/19 00:52:35;;;;;;;;;;;;;;;20.12;42.53;96456.31;1040418;28;1188;-62
2021/10/19 00:53:05;;;;;;;;;;;;;;;20.12;42.46;96450.25;1040401;28;824;-61
2021/10/19 00:53:35;;;;;;;;;;;;;;;20.12;42.53;96460.78;1040743;28;1046;-61
2021/10/19 00:54:06;;;;;;;;;;;;;;;20.12;42.27;96458.16;1040724;28;1050;-60
2021/10/19 00:54:36;;;;;;;;;;;;;;;20.12;42.56;96450.25;1036099;28;1023;-61
2021/10/19 00:55:09;;;;;;;;;;;;;;;20.12;42.17;96455.50;1035723;28;856;-61
2021/10/19 00:55:39;;;;;;;;;;;;;;;20.12;42.57;96452.88;1041132;28;864;-61
2021/10/19 00:56:10;;;;;;;;;;;;;;;20.13;42.41;96457.13;1044759;28;1065;-61
2021/10/19 00:56:40;;;;;;;;;;;;;;;20.14;42.54;96461.31;1044761;28;840;-61
2021/10/19 00:57:10;;;;;;;;;;;;;;;20.14;42.42;96463.94;1044570;28;859;-61
2021/10/19 00:57:41;;;;;;;;;;;;;;;20.14;42.37;96461.31;1044539;28;1910;-61
2021/10/19 00:58:11;;;;;;;;;;;;;;;20.13;42.47;96465.78;1044873;28;808;-61
2021/10/19 00:58:42;;;;;;;;;;;;;;;20.13;42.43;96460.53;1045079;28;788;-61
2021/10/19 00:59:12;;;;;;;;;;;;;;;20.13;42.40;96463.16;1045242;28;856;-61
2021/10/19 00:59:43;;;;;;;;;;;;;;;20.13;42.49;96463.16;1040032;28;1385;-60
2021/10/19 01:00:14;;;;;;;;;;;;;;;20.13;42.52;96460.53;1040253;28;1241;-61
2021/10/19 01:00:44;;;;;;;;;;;;;;;20.13;42.39;96457.13;1040571;28;812;-61
2021/10/19 01:01:15;;;;;;;;;;;;;;;20.13;42.38;96459.75;1040912;28;860;-61
2021/10/19 01:01:46;;;;;;;;;;;;;;;20.10;42.64;96449.72;1040653;28;1014;-61
2021/10/19 01:02:16;;;;;;;;;;;;;;;20.11;42.42;96462.63;1040530;28;975;-62
2021/10/19 01:02:47;;;;;;;;;;;;;;;20.12;42.53;96452.88;1031363;28;1022;-61
2021/10/19 01:03:17;;;;;;;;;;;;;;;20.13;42.33;96454.47;1032605;28;1015;-61
2021/10/19 01:03:48;;;;;;;;;;;;;;;20.12;42.51;96452.88;1036111;28;1062;-61
2021/10/19 01:04:18;;;;;;;;;;;;;;;20.12;42.36;96458.16;1040499;28;1026;-61
2021/10/19 01:04:48;;;;;;;;;;;;;;;20.12;42.43;96452.88;1044408;28;994;-60
2021/10/19 01:05:20;;;;;;;;;;;;;;;20.10;42.50;96454.97;1044439;28;848;-61
2021/10/19 01:05:50;;;;;;;;;;;;;;;20.10;42.48;96461.03;1040343;28;988;-61
2021/10/19 01:06:20;;;;;;;;;;;;;;;20.10;42.51;96447.88;1035905;28;1391;-61
2021/10/19 01:06:51;;;;;;;;;;;;;;;20.12;42.42;96452.88;1036675;28;784;-61
2021/10/19 01:07:21;;;;;;;;;;;;;;;20.10;42.59;96450.50;1036595;28;812;-61
2021/10/19 01:07:51;;;;;;;;;;;;;;;20.12;42.25;96452.88;1036398;28;1576;-61
2021/10/19 01:08:27;;;;;;;;;;;;;;;20.09;42.50;96448.16;1040759;28;527;-61
2021/10/19 01:09:03;;;;;;;;;;;;;;;20.09;42.56;96453.41;1040412;28;1088;-61
2021/10/19 01:09:43;;;;;;;;;;;;;;;20.10;42.52;96452.34;1036498;28;844;-61
2021/10/19 01:10:14;;;;;;;;;;;;;;;20.11;42.54;96451.31;1032143;28;1288;-61
2021/10/19 01:10:51;;;;;;;;;;;;;;;20.10;42.30;96454.97;1034730;28;1167;-61
2021/10/19 01:11:42;;;;;;;;;;;;;;;20.10;42.44;96452.34;1036307;28;1209;-61
2021/10/19 01:12:24;;;;;;;;;;;;;;;20.09;42.31;96456.03;1040439;28;859;-61
2021/10/19 01:12:55;;;;;;;;;;;;;;;20.08;42.31;96452.59;1040496;28;1320;-62
2021/10/19 01:13:26;;;;;;;;;;;;;;;20.09;42.49;96454.19;1034307;28;1420;-62
2021/10/19 01:14:16;;;;;;;;;;;;;;;20.08;42.44;96449.97;1036055;28;1109;-61
2021/10/19 01:15:13;;;;;;;;;;;;;;;20.09;42.52;96448.16;1038778;28;1025;-61
2021/10/19 01:15:46;;;;;;;;;;;;;;;20.11;42.48;96454.72;1045061;28;788;-60
2021/10/19 01:16:16;;;;;;;;;;;;;;;20.10;42.29;96452.34;1044987;28;827;-62
2021/10/19 01:16:46;;;;;;;;;;;;;;;20.09;42.51;96451.53;1044943;28;1061;-61
2021/10/19 01:17:17;;;;;;;;;;;;;;;20.10;42.29;96449.72;1044568;28;1965;-61
2021/10/19 01:17:48;;;;;;;;;;;;;;;20.10;42.56;96449.72;1043618;28;768;-61
2021/10/19 01:18:19;;;;;;;;;;;;;;;20.10;42.47;96454.97;1044559;28;832;-62
2021/10/19 01:19:09;;;;;;;;;;;;;;;20.09;42.37;96453.41;1043499;28;1088;-62
2021/10/19 01:20:00;;;;;;;;;;;;;;;20.09;42.44;96448.16;1044583;28;1283;-61
2021/10/19 01:20:50;;;;;;;;;;;;;;;20.08;42.28;96454.44;1045091;28;832;-62
2021/10/19 01:21:31;;;;;;;;;;;;;;;20.10;42.44;96452.34;1045164;28;776;-62
2021/10/19 01:22:02;;;;;;;;;;;;;;;20.08;42.31;96446.53;1044572;28;1320;-62
2021/10/19 01:22:32;;;;;;;;;;;;;;;20.09;42.26;96453.41;1044293;28;854;-61
2021/10/19 01:23:03;;;;;;;;;;;;;;;20.09;42.30;96448.16;1044313;28;843;-62
2021/10/19 01:23:34;;;;;;;;;;;;;;;20.10;42.41;96452.34;1044805;28;815;-61
2021/10/19 01:24:04;;;;;;;;;;;;;;;20.09;42.28;96448.16;1044738;28;1383;-61
2021/10/19 01:24:36;;;;;;;;;;;;;;;20.10;42.34;96447.09;1040183;28;1303;-62
2021/10/19 01:25:27;;;;;;;;;;;;;;;20.09;42.38;96454.19;1037324;28;1232;-61
2021/10/19 01:26:17;;;;;;;;;;;;;;;20.09;42.30;96450.78;1045688;28;1247;-61
2021/10/19 01:26:51;;;;;;;;;;;;;;;20.09;42.26;96458.66;1048868;28;820;-61
2021/10/19 01:27:31;;;;;;;;;;;;;;;20.09;42.35;96458.66;1044766;28;1362;-61
2021/10/19 01:28:03;;;;;;;;;;;;;;;20.09;42.22;96456.03;1044719;28;823;-61
2021/10/19 01:28:40;;;;;;;;;;;;;;;20.07;42.37;96451.00;1044520;28;1268;-61
2021/10/19 01:29:23;;;;;;;;;;;;;;;20.07;42.49;96455.50;1040654;28;1094;-61
2021/10/19 01:29:54;;;;;;;;;;;;;;;20.08;42.48;96449.19;1036462;28;1252;-61
2021/10/19 01:30:25;;;;;;;;;;;;;;;20.08;42.23;96457.88;1038436;28;773;-61
2021/10/19 01:30:58;;;;;;;;;;;;;;;20.08;42.46;96457.88;1040434;28;1372;-62
2021/10/19 01:31:52;;;;;;;;;;;;;;;20.07;42.23;96452.88;1041262;28;1069;-61
2021/10/19 01:32:25;;;;;;;;;;;;;;;20.07;42.43;96458.13;1040538;28;1031;-62
2021/10/19 01:32:56;;;;;;;;;;;;;;;20.07;42.38;96450.22;1039177;28;1038;-62
2021/10/19 01:33:26;;;;;;;;;;;;;;;20.07;42.49;96452.88;1040535;28;999;-61
2021/10/19 01:33:57;;;;;;;;;;;;;;;20.06;42.36;96453.91;1040831;28;835;-61
2021/10/19 01:34:27;;;;;;;;;;;;;;;20.08;42.34;96451.81;1044290;28;826;-62
2021/10/19 01:34:57;;;;;;;;;;;;;;;20.08;42.31;96454.44;1044411;28;1630;-61
2021/10/19 01:35:31;;;;;;;;;;;;;;;20.08;42.41;96457.06;1040239;28;884;-61
2021/10/19 01:36:01;;;;;;;;;;;;;;;20.07;42.29;96453.63;1040390;28;1030;-61
2021/10/19 01:36:32;;;;;;;;;;;;;;;20.07;42.37;96456.28;1040996;28;978;-61
2021/10/19 01:37:03;;;;;;;;;;;;;;;20.07;42.22;96453.63;1040341;28;1220;-61
2021/10/19 01:37:33;;;;;;;;;;;;;;;20.06;42.39;96454.69;1040501;28;1910;-61
2021/10/19 01:38:04;;;;;;;;;;;;;;;20.08;42.22;96457.06;1040653;28;1058;-61
2021/10/19 01:38:34;;;;;;;;;;;;;;;20.10;42.30;96452.34;1044829;28;511;-61
2021/10/19 01:39:06;;;;;;;;;;;;;;;20.10;42.33;96457.59;1045046;28;879;-61
2021/10/19 01:39:37;;;;;;;;;;;;;;;20.08;42.33;96457.88;1045157;28;808;-61
2021/10/19 01:40:08;;;;;;;;;;;;;;;20.09;42.36;96458.66;1044405;28;1276;-61
2021/10/19 01:40:39;;;;;;;;;;;;;;;20.08;42.34;96459.69;1044901;28;729;-61
2021/10/19 01:41:09;;;;;;;;;;;;;;;20.08;42.34;96455.25;1044472;28;1014;-61
2021/10/19 01:41:41;;;;;;;;;;;;;;;20.08;42.41;96454.44;1044486;28;943;-61
2021/10/19 01:42:11;;;;;;;;;;;;;;;20.08;42.20;96449.19;1044396;28;820;-61
2021/10/19 01:42:42;;;;;;;;;;;;;;;20.07;42.41;96456.28;1044807;28;725;-61
2021/10/19 01:43:13;;;;;;;;;;;;;;;20.05;42.25;96450.47;1044627;28;721;-61
2021/10/19 01:43:43;;;;;;;;;;;;;;;20.06;42.27;96456.53;1040634;28;880;-61
2021/10/19 01:44:14;;;;;;;;;;;;;;;20.05;42.29;96450.47;1040467;28;741;-61
2021/10/19 01:44:44;;;;;;;;;;;;;;;20.06;42.38;96452.06;1040110;28;757;-61
2021/10/19 01:45:16;;;;;;;;;;;;;;;20.07;42.25;96455.50;1043939;28;1029;-61
2021/10/19 01:45:50;;;;;;;;;;;;;;;20.09;42.30;96463.94;1045124;28;950;-61
2021/10/19 01:46:22;;;;;;;;;;;;;;;20.09;42.42;96463.94;1043079;28;1395;-61
2021/10/19 01:46:52;;;;;;;;;;;;;;;20.06;42.17;96457.34;1043815;28;986;-61
2021/10/19 01:47:22;;;;;;;;;;;;;;;20.07;42.45;96455.50;1044598;28;856;-61
2021/10/19 01:47:53;;;;;;;;;;;;;;;20.06;42.21;96457.34;1043375;28;718;-61
2021/10/19 01:48:23;;;;;;;;;;;;;;;20.07;42.34;96452.88;1045191;28;765;-61
2021/10/19 01:48:56;;;;;;;;;;;;;;;20.07;42.16;96450.22;1044690;28;1200;-61
2021/10/19 01:49:26;;;;;;;;;;;;;;;20.06;42.30;96452.06;1044485;28;828;-61
2021/10/19 01:49:57;;;;;;;;;;;;;;;20.07;42.16;96450.22;1040703;28;1355;-60
2021/10/19 01:50:27;;;;;;;;;;;;;;;20.07;42.38;96455.50;1040774;28;1246;-60
2021/10/19 01:50:58;;;;;;;;;;;;;;;20.06;42.17;96452.06;1044772;28;827;-61
2021/10/19 01:51:28;;;;;;;;;;;;;;;20.06;42.33;96444.16;1044136;28;796;-61
2021/10/19 01:51:58;;;;;;;;;;;;;;;20.06;42.27;96448.63;1044503;28;733;-61
2021/10/19 01:52:28;;;;;;;;;;;;;;;20.07;42.27;96452.88;1044833;28;878;-59
2021/10/19 01:52:59;;;;;;;;;;;;;;;20.07;42.28;96450.22;1044728;28;817;-61
2021/10/19 01:53:29;;;;;;;;;;;;;;;20.06;42.32;96449.44;1044978;28;1018;-61
2021/10/19 01:54:00;;;;;;;;;;;;;;;20.07;42.21;96455.50;1044946;28;1017;-61
2021/10/19 01:54:30;;;;;;;;;;;;;;;20.06;42.23;96446.81;1043820;28;847;-61
2021/10/19 01:55:02;;;;;;;;;;;;;;;20.05;42.14;96447.84;1040521;28;797;-61
2021/10/19 01:55:32;;;;;;;;;;;;;;;20.06;42.37;96448.63;1040281;28;831;-61
2021/10/19 01:56:03;;;;;;;;;;;;;;;20.06;42.27;96449.44;1040906;28;1077;-61
2021/10/19 01:56:34;;;;;;;;;;;;;;;20.05;42.39;96445.19;1044219;28;882;-61
2021/10/19 01:57:04;;;;;;;;;;;;;;;20.04;42.21;96450.72;1040816;28;796;-61
2021/10/19 01:57:34;;;;;;;;;;;;;;;20.06;42.29;96443.38;1044362;28;1971;-61
2021/10/19 01:58:06;;;;;;;;;;;;;;;20.06;42.43;96446.00;1044529;28;815;-61
2021/10/19 01:58:36;;;;;;;;;;;;;;;20.05;42.23;96445.19;1040905;28;768;-60
2021/10/19 01:59:06;;;;;;;;;;;;;;;20.05;42.16;96449.69;1044594;28;1061;-61
2021/10/19 01:59:37;;;;;;;;;;;;;;;20.04;42.39;96446.25;1044497;28;984;-60
2021/10/19 02:00:08;;;;;;;;;;;;;;;20.06;42.28;96443.38;1044327;28;1233;-61
2021/10/19 02:00:39;;;;;;;;;;;;;;;20.05;42.30;96445.19;1044745;28;986;-61
2021/10/19 02:01:09;;;;;;;;;;;;;;;20.07;42.20;96450.22;1044998;28;1046;-60
2021/10/19 02:01:39;;;;;;;;;;;;;;;20.07;42.14;96444.97;1044407;28;943;-60
2021/10/19 02:02:10;;;;;;;;;;;;;;;20.04;42.22;96440.19;1044296;28;998;-61
2021/10/19 02:02:40;;;;;;;;;;;;;;;20.05;42.40;96442.56;1043481;28;836;-61
2021/10/19 02:03:11;;;;;;;;;;;;;;;20.04;42.36;96448.09;1044469;28;734;-61
2021/10/19 02:03:41;;;;;;;;;;;;;;;20.04;42.39;96441.00;1044744;28;848;-61
2021/10/19 02:04:11;;;;;;;;;;;;;;;20.04;42.14;96438.38;1043920;28;1391;-61
2021/10/19 02:04:42;;;;;;;;;;;;;;;20.03;42.24;96444.66;1043998;28;733;-60
2021/10/19 02:05:12;;;;;;;;;;;;;;;20.04;42.15;96440.19;1044706;28;800;-61
2021/10/19 02:05:42;;;;;;;;;;;;;;;20.04;42.31;96443.63;1044463;28;784;-61
2021/10/19 02:06:13;;;;;;;;;;;;;;;20.04;42.09;96440.19;1044778;28;838;-61
2021/10/19 02:06:43;;;;;;;;;;;;;;;20.04;42.34;96442.84;1044617;28;690;-61
2021/10/19 02:07:14;;;;;;;;;;;;;;;20.03;42.38;96436.78;1044561;28;710;-61
2021/10/19 02:07:44;;;;;;;;;;;;;;;20.04;42.28;96441.00;1040260;28;1018;-60
2021/10/19 02:08:14;;;;;;;;;;;;;;;20.04;42.39;96440.19;1040365;28;864;-61
2021/10/19 02:08:45;;;;;;;;;;;;;;;20.03;42.12;96441.25;1040661;28;927;-61
2021/10/19 02:09:15;;;;;;;;;;;;;;;20.05;42.09;96434.69;1044577;28;843;-61
2021/10/19 02:09:45;;;;;;;;;;;;;;;20.05;42.36;96436.53;1044556;28;827;-61
2021/10/19 02:10:16;;;;;;;;;;;;;;;20.05;42.13;96436.53;1044818;28;1287;-61
2021/10/19 02:10:46;;;;;;;;;;;;;;;20.05;42.24;96433.91;1044430;28;1014;-60
2021/10/19 02:11:16;;;;;;;;;;;;;;;20.03;42.25;96439.41;1044627;28;1014;-61
2021/10/19 02:11:47;;;;;;;;;;;;;;;20.05;42.31;96436.53;1044123;28;1054;-61
2021/10/19 02:12:17;;;;;;;;;;;;;;;20.04;42.22;96440.19;1044113;28;955;-61
2021/10/19 02:12:47;;;;;;;;;;;;;;;20.05;42.30;96439.16;1044333;28;943;-61
2021/10/19 02:13:18;;;;;;;;;;;;;;;20.04;42.18;96435.75;1044360;28;824;-61
2021/10/19 02:13:48;;;;;;;;;;;;;;;20.04;42.32;96434.94;1044558;28;784;-61
2021/10/19 02:14:18;;;;;;;;;;;;;;;20.03;42.23;96431.50;1044117;28;1057;-61
2021/10/19 02:14:49;;;;;;;;;;;;;;;20.03;42.21;96430.72;1044324;28;1105;-61
2021/10/19 02:15:24;;;;;;;;;;;;;;;20.04;42.30;96435.75;1044687;28;951;-61
2021/10/19 02:15:54;;;;;;;;;;;;;;;20.06;42.01;96431.00;1040029;28;796;-60
2021/10/19 02:16:25;;;;;;;;;;;;;;;20.05;42.21;96432.03;1040114;28;785;-61
2021/10/19 02:16:55;;;;;;;;;;;;;;;20.07;42.13;96434.44;1040764;28;1030;-61
2021/10/19 02:17:25;;;;;;;;;;;;;;;20.06;42.09;96430.22;1044428;28;1985;-61
2021/10/19 02:17:56;;;;;;;;;;;;;;;20.05;42.14;96428.63;1043457;28;811;-61
2021/10/19 02:18:26;;;;;;;;;;;;;;;20.03;42.34;96433.38;1044235;28;915;-61
2021/10/19 02:18:57;;;;;;;;;;;;;;;20.02;42.13;96429.94;1044634;28;793;-61
2021/10/19 02:19:28;;;;;;;;;;;;;;;20.02;42.26;96431.75;1044746;28;1053;-61
2021/10/19 02:20:01;;;;;;;;;;;;;;;20.02;42.34;96427.31;1044560;28;1292;-61
2021/10/19 02:20:32;;;;;;;;;;;;;;;20.03;42.38;96431.50;1044910;28;769;-61
2021/10/19 02:21:02;;;;;;;;;;;;;;;20.02;42.29;96427.31;1044980;28;784;-61
2021/10/19 02:21:32;;;;;;;;;;;;;;;20.03;42.25;96434.13;1044300;28;1112;-60
2021/10/19 02:22:03;;;;;;;;;;;;;;;20.03;42.10;96433.38;1044351;28;815;-61
2021/10/19 02:22:33;;;;;;;;;;;;;;;20.02;42.25;96431.75;1043850;28;879;-61
2021/10/19 02:23:04;;;;;;;;;;;;;;;20.03;42.23;96436.00;1044513;28;805;-61
2021/10/19 02:23:34;;;;;;;;;;;;;;;20.03;42.24;96433.38;1040450;28;979;-61
2021/10/19 02:24:05;;;;;;;;;;;;;;;20.02;42.15;96427.31;1044496;28;1018;-61
2021/10/19 02:24:35;;;;;;;;;;;;;;;20.03;42.21;96430.72;1044014;28;1065;-61
2021/10/19 02:25:05;;;;;;;;;;;;;;;20.07;42.32;96431.81;1043571;28;955;-61
2021/10/19 02:25:36;;;;;;;;;;;;;;;20.06;42.13;96432.84;1044876;28;788;-61
2021/10/19 02:26:06;;;;;;;;;;;;;;;20.04;42.31;96433.09;1044782;28;915;-61
2021/10/19 02:26:37;;;;;;;;;;;;;;;20.05;42.16;96426.00;1044551;28;868;-61
2021/10/19 02:27:07;;;;;;;;;;;;;;;20.03;42.26;96436.00;1044657;28;824;-61
2021/10/19 02:27:38;;;;;;;;;;;;;;;20.04;42.25;96432.31;1044649;28;812;-61
2021/10/19 02:28:08;;;;;;;;;;;;;;;20.02;42.10;96424.66;1045002;28;920;-60
2021/10/19 02:28:38;;;;;;;;;;;;;;;20.04;42.25;96424.41;1044884;28;744;-61
2021/10/19 02:29:09;;;;;;;;;;;;;;;20.02;42.09;96426.50;1044703;28;823;-61
2021/10/19 02:29:39;;;;;;;;;;;;;;;20.02;42.11;96426.50;1045115;28;796;-60
2021/10/19 02:30:09;;;;;;;;;;;;;;;20.01;42.29;96432.81;1044649;28;1192;-61
2021/10/19 02:30:40;;;;;;;;;;;;;;;20.01;42.10;96424.94;1044613;28;1069;-60
2021/10/19 02:31:12;;;;;;;;;;;;;;;20.02;42.13;96424.66;1035982;28;1447;-61
2021/10/19 02:31:42;;;;;;;;;;;;;;;20.03;42.08;96422.84;1035639;28;726;-61
2021/10/19 02:32:13;;;;;;;;;;;;;;;20.02;42.11;96421.25;1036510;28;695;-61
2021/10/19 02:32:43;;;;;;;;;;;;;;;20.03;42.19;96422.84;1039095;28;800;-60
2021/10/19 02:33:13;;;;;;;;;;;;;;;20.02;42.08;96419.41;1040233;28;983;-61
2021/10/19 02:33:44;;;;;;;;;;;;;;;20.01;42.31;96415.19;1039656;28;797;-61
2021/10/19 02:34:16;;;;;;;;;;;;;;;20.01;42.14;96419.66;1039832;28;754;-61
2021/10/19 02:34:47;;;;;;;;;;;;;;;20.02;42.13;96418.59;1040624;28;1099;-61
2021/10/19 02:35:17;;;;;;;;;;;;;;;20.00;42.38;96415.44;1044081;28;1086;-61
2021/10/19 02:35:48;;;;;;;;;;;;;;;20.01;42.23;96417.03;1044480;28;870;-60
2021/10/19 02:36:21;;;;;;;;;;;;;;;20.00;42.12;96413.59;1044016;28;994;-61
2021/10/19 02:36:51;;;;;;;;;;;;;;;20.00;42.16;96418.06;1044374;28;848;-61
2021/10/19 02:37:22;;;;;;;;;;;;;;;20.01;42.28;96417.03;1044628;28;1918;-61
2021/10/19 02:37:57;;;;;;;;;;;;;;;20.01;42.06;96419.66;1044194;28;745;-61
2021/10/19 02:38:27;;;;;;;;;;;;;;;20.00;42.11;96410.16;1044411;28;1018;-61
2021/10/19 02:38:58;;;;;;;;;;;;;;;19.99;42.05;96412.00;1044549;28;1061;-61
2021/10/19 02:39:28;;;;;;;;;;;;;;;20.01;42.19;96411.78;1040872;28;693;-61
2021/10/19 02:39:59;;;;;;;;;;;;;;;20.00;42.25;96410.97;1044477;28;1374;-60
2021/10/19 02:40:29;;;;;;;;;;;;;;;20.00;42.17;96413.59;1044353;28;800;-60
2021/10/19 02:41:00;;;;;;;;;;;;;;;20.01;41.99;96411.78;1044133;28;804;-61
2021/10/19 02:41:30;;;;;;;;;;;;;;;20.00;42.04;96410.16;1044262;28;875;-60
2021/10/19 02:42:00;;;;;;;;;;;;;;;20.01;42.09;96414.41;1043789;28;797;-61
2021/10/19 02:42:31;;;;;;;;;;;;;;;20.00;42.11;96413.59;1044175;28;863;-61
2021/10/19 02:43:01;;;;;;;;;;;;;;;20.02;42.04;96410.72;1044223;28;859;-61
2021/10/19 02:43:31;;;;;;;;;;;;;;;20.02;41.99;96410.72;1044456;28;709;-61
2021/10/19 02:44:02;;;;;;;;;;;;;;;20.00;42.10;96403.09;1044822;28;839;-61
2021/10/19 02:44:32;;;;;;;;;;;;;;;20.01;42.24;96404.66;1043942;28;815;-61
2021/10/19 02:45:03;;;;;;;;;;;;;;;20.01;42.20;96403.88;1044292;28;999;-61
2021/10/19 02:45:33;;;;;;;;;;;;;;;20.02;41.99;96405.44;1043708;28;765;-61
2021/10/19 02:46:04;;;;;;;;;;;;;;;20.01;42.05;96404.66;1044448;28;828;-61
2021/10/19 02:46:34;;;;;;;;;;;;;;;20.01;42.01;96398.63;1044330;28;1093;-61
2021/10/19 02:47:04;;;;;;;;;;;;;;;20.01;42.05;96393.34;1044352;28;749;-61